Time;durP1;ratioP1;P1;durP2;ratioP2;P2;SDS_P1;SDS_P2;PMS_P1;PMS_P2;Temp;Humidity;BMP_temperature;BMP_pressure;BME280_temperature;BME280_humidity;BME280_pressure;Samples;Min_cycle;Max_cycle;Signal;HPM_P1;HPM_P2
2021/04/26 00:01:45;;;;;;;6.20;3.00;;;9.00;52.80;;;;;;5107598;28;20285;-69
2021/04/26 00:04:11;;;;;;;4.60;2.83;;;8.90;52.80;;;;;;5109482;28;20293;-69
2021/04/26 00:06:37;;;;;;;5.07;2.70;;;9.00;52.50;;;;;;5109340;28;21011;-70
2021/04/26 00:09:04;;;;;;;5.80;2.67;;;9.00;52.20;;;;;;5107919;28;20214;-70
2021/04/26 00:11:29;;;;;;;6.53;2.90;;;9.00;52.60;;;;;;5109599;28;20285;-69
2021/04/26 00:13:55;;;;;;;2.97;2.40;;;9.00;52.50;;;;;;5111214;28;20512;-70
2021/04/26 00:16:21;;;;;;;6.10;3.10;;;9.00;52.50;;;;;;5110525;28;20183;-69
2021/04/26 00:18:46;;;;;;;11.00;3.20;;;9.00;52.40;;;;;;5109285;28;20179;-69
2021/04/26 00:21:12;;;;;;;5.00;2.83;;;8.90;52.60;;;;;;5110111;28;20229;-70
2021/04/26 00:23:38;;;;;;;7.63;3.20;;;8.80;53.20;;;;;;5111495;28;20208;-70
2021/04/26 00:26:04;;;;;;;6.43;2.97;;;8.80;53.30;;;;;;5110925;28;20182;-69
2021/04/26 00:28:29;;;;;;;4.40;3.00;;;8.70;53.70;;;;;;5104015;28;20222;-70
2021/04/26 00:30:55;;;;;;;6.53;3.30;;;8.70;53.80;;;;;;5109002;28;20296;-69
2021/04/26 00:33:21;;;;;;;9.73;5.73;;;8.60;54.10;;;;;;5095041;28;20208;-68
2021/04/26 00:35:46;;;;;;;9.23;3.20;;;8.60;54.10;;;;;;5111579;28;20259;-69
2021/04/26 00:38:12;;;;;;;6.57;3.20;;;8.60;54.10;;;;;;5115076;28;20210;-70
2021/04/26 00:40:38;;;;;;;5.20;2.80;;;8.60;54.40;;;;;;5111491;28;20228;-69
2021/04/26 00:43:03;;;;;;;5.27;2.90;;;8.60;54.40;;;;;;5109587;28;20186;-69
2021/04/26 00:45:30;;;;;;;5.73;3.20;;;8.60;54.50;;;;;;5109619;28;20190;-70
2021/04/26 00:47:56;;;;;;;5.33;3.00;;;8.60;54.90;;;;;;5110245;28;20206;-70
2021/04/26 00:50:21;;;;;;;8.07;3.60;;;8.40;55.70;;;;;;5109816;28;20493;-69
2021/04/26 00:52:49;;;;;;;6.50;3.10;;;8.50;55.80;;;;;;5101194;28;20482;-70
2021/04/26 00:55:15;;;;;;;4.97;2.93;;;8.40;56.00;;;;;;5090528;28;20258;-69
2021/04/26 00:57:42;;;;;;;5.27;3.13;;;8.50;56.00;;;;;;5107672;28;20426;-70
2021/04/26 01:00:09;;;;;;;6.53;3.67;;;8.40;56.50;;;;;;5111263;28;20422;-70
2021/04/26 01:02:35;;;;;;;8.93;3.77;;;8.40;56.80;;;;;;5092058;28;20413;-69
2021/04/26 01:05:03;;;;;;;7.23;3.90;;;8.40;57.00;;;;;;5105763;28;20469;-70
2021/04/26 01:07:30;;;;;;;7.80;4.10;;;8.10;58.00;;;;;;5093468;28;20461;-69
2021/04/26 01:09:55;;;;;;;7.03;4.50;;;8.10;58.50;;;;;;5093778;28;20504;-71
2021/04/26 01:12:55;;;;;;;8.27;4.43;;;8.10;58.80;;;;;;5111685;28;20539;-69
2021/04/26 01:15:32;;;;;;;8.07;3.93;;;8.00;59.10;;;;;;5113795;28;20208;-69
2021/04/26 01:18:04;;;;;;;5.40;3.80;;;8.00;59.30;;;;;;5115449;28;20416;-69
2021/04/26 01:20:45;;;;;;;5.20;3.77;;;8.00;59.50;;;;;;5115345;28;20460;-70
2021/04/26 01:23:41;;;;;;;7.40;4.20;;;8.00;59.70;;;;;;5115633;28;20442;-70
2021/04/26 01:26:09;;;;;;;5.47;3.80;;;7.90;59.90;;;;;;5117842;28;20931;-70
2021/04/26 01:28:45;;;;;;;6.17;3.90;;;8.00;59.70;;;;;;5117138;28;20444;-69
2021/04/26 01:31:20;;;;;;;8.10;4.30;;;7.80;60.60;;;;;;5113661;28;20442;-70
2021/04/26 01:33:56;;;;;;;7.17;4.80;;;7.70;60.60;;;;;;5112075;28;20427;-70
2021/04/26 01:36:28;;;;;;;8.10;4.00;;;7.70;61.00;;;;;;5112098;27;20923;-69
2021/04/26 01:38:56;;;;;;;11.33;5.33;;;7.70;61.00;;;;;;5112140;28;20427;-70
2021/04/26 01:41:28;;;;;;;10.30;5.20;;;7.70;61.20;;;;;;5111179;28;20432;-70
2021/04/26 01:43:56;;;;;;;7.40;4.60;;;7.70;61.50;;;;;;5112089;28;20432;-69
2021/04/26 01:46:24;;;;;;;6.97;4.30;;;7.70;61.50;;;;;;5098686;28;20499;-70
2021/04/26 01:48:52;;;;;;;7.17;4.00;;;7.70;61.30;;;;;;5111044;28;20575;-68
2021/04/26 01:51:19;;;;;;;9.13;4.40;;;7.70;61.50;;;;;;5098889;28;20439;-69
2021/04/26 01:53:46;;;;;;;7.50;4.73;;;7.70;61.70;;;;;;5111614;28;20447;-70
2021/04/26 01:56:13;;;;;;;7.47;4.63;;;7.50;62.20;;;;;;5103324;28;20544;-69
2021/04/26 01:58:42;;;;;;;10.90;4.47;;;7.50;62.60;;;;;;5106138;28;20420;-69
2021/04/26 02:01:13;;;;;;;8.47;4.80;;;7.60;62.60;;;;;;5111037;28;20801;-69
2021/04/26 02:03:41;;;;;;;8.30;5.30;;;7.60;62.60;;;;;;5110259;28;20443;-70
2021/04/26 02:06:08;;;;;;;6.87;4.77;;;7.70;62.60;;;;;;5111363;28;20420;-68
2021/04/26 02:08:35;;;;;;;11.07;4.80;;;7.70;62.80;;;;;;5110995;28;20468;-70
2021/04/26 02:11:01;;;;;;;10.60;6.00;;;7.70;62.60;;;;;;5109338;28;20452;-70
2021/04/26 02:13:29;;;;;;;9.50;5.10;;;7.70;62.20;;;;;;5111246;28;20501;-69
2021/04/26 02:15:56;;;;;;;9.30;5.40;;;7.70;62.30;;;;;;5110032;28;20432;-70
2021/04/26 02:18:22;;;;;;;10.70;5.50;;;7.80;62.50;;;;;;5110965;28;20821;-69
2021/04/26 02:20:48;;;;;;;15.13;4.90;;;7.80;62.20;;;;;;5110595;28;20440;-70
2021/04/26 02:23:14;;;;;;;8.50;4.73;;;7.80;62.20;;;;;;5110822;28;20462;-70
2021/04/26 02:25:40;;;;;;;8.90;5.20;;;7.80;62.30;;;;;;5109677;28;20432;-70
2021/04/26 02:28:06;;;;;;;11.53;5.20;;;7.70;62.30;;;;;;5110714;28;20566;-69
2021/04/26 02:30:33;;;;;;;12.50;4.60;;;7.70;62.60;;;;;;5110245;28;20539;-70
2021/04/26 02:33:16;;;;;;;10.17;4.73;;;7.70;62.90;;;;;;5110549;27;20243;-70
2021/04/26 02:35:44;;;;;;;9.90;5.40;;;7.70;63.20;;;;;;5111004;28;20446;-69
2021/04/26 02:38:27;;;;;;;11.50;4.87;;;7.70;63.50;;;;;;5096825;28;20421;-70
2021/04/26 02:41:00;;;;;;;12.37;5.57;;;7.60;63.70;;;;;;5109932;28;20454;-70
2021/04/26 02:43:26;;;;;;;9.70;5.00;;;7.50;64.20;;;;;;5110758;28;20424;-69
2021/04/26 02:45:55;;;;;;;7.77;5.20;;;7.50;64.50;;;;;;5110763;28;20443;-69
2021/04/26 02:48:22;;;;;;;7.90;4.67;;;7.40;64.80;;;;;;5101233;28;20472;-70
2021/04/26 02:50:52;;;;;;;11.17;5.70;;;7.30;65.10;;;;;;5105814;28;20531;-70
2021/04/26 02:53:18;;;;;;;8.33;4.93;;;7.30;65.30;;;;;;5110685;28;20419;-71
2021/04/26 02:55:45;;;;;;;11.80;5.47;;;7.30;65.30;;;;;;5106846;28;20436;-70
2021/04/26 02:58:12;;;;;;;14.57;5.67;;;7.20;65.80;;;;;;5101029;28;20465;-70
2021/04/26 03:00:39;;;;;;;8.83;5.00;;;7.10;66.00;;;;;;5109192;28;20478;-69
2021/04/26 03:03:05;;;;;;;10.87;5.60;;;7.10;66.00;;;;;;5110603;28;20428;-70
2021/04/26 03:05:31;;;;;;;10.13;5.60;;;7.00;66.10;;;;;;5110361;28;20515;-70
2021/04/26 03:07:57;;;;;;;9.33;4.93;;;6.90;66.40;;;;;;5112123;28;20531;-70
2021/04/26 03:10:23;;;;;;;8.53;5.80;;;6.90;66.70;;;;;;5109723;28;20526;-70
2021/04/26 03:12:51;;;;;;;18.27;6.50;;;6.80;66.90;;;;;;5110074;28;20215;-70
2021/04/26 03:15:25;;;;;;;9.23;5.10;;;6.80;66.90;;;;;;5110222;28;20812;-70
2021/04/26 03:17:52;;;;;;;14.07;5.07;;;6.70;67.20;;;;;;5108722;28;20444;-70
2021/04/26 03:20:20;;;;;;;13.97;6.23;;;6.70;67.60;;;;;;5109095;28;20420;-69
2021/04/26 03:22:47;;;;;;;11.90;6.07;;;6.60;67.60;;;;;;5107901;28;20432;-70
2021/04/26 03:25:14;;;;;;;10.33;6.43;;;6.50;67.60;;;;;;5095823;28;20432;-69
2021/04/26 03:27:46;;;;;;;8.30;5.77;;;6.50;67.90;;;;;;5109826;28;21006;-69
2021/04/26 03:30:15;;;;;;;10.97;5.57;;;6.50;68.00;;;;;;5107939;28;20480;-69
2021/04/26 03:32:43;;;;;;;12.23;5.70;;;6.50;68.00;;;;;;5109347;28;20416;-69
2021/04/26 03:35:13;;;;;;;10.20;5.80;;;6.50;68.00;;;;;;5110063;28;21076;-70
2021/04/26 03:37:40;;;;;;;10.03;6.10;;;6.40;68.30;;;;;;5109741;28;20432;-68
2021/04/26 03:40:07;;;;;;;12.40;6.40;;;6.40;68.50;;;;;;5109756;28;20477;-69
2021/04/26 03:42:33;;;;;;;18.00;5.90;;;6.40;68.00;;;;;;5108717;28;20428;-70
2021/04/26 03:44:59;;;;;;;14.10;6.30;;;6.40;68.20;;;;;;5090820;28;20417;-69
2021/04/26 03:47:25;;;;;;;10.73;6.30;;;6.40;68.20;;;;;;5091948;28;20495;-69
2021/04/26 03:49:51;;;;;;;12.30;5.83;;;6.40;67.70;;;;;;5098875;28;20436;-69
2021/04/26 03:52:16;;;;;;;11.20;6.37;;;6.30;67.70;;;;;;5112651;28;20455;-69
2021/04/26 03:54:42;;;;;;;11.37;6.10;;;6.30;66.70;;;;;;5114814;28;20269;-69
2021/04/26 03:57:08;;;;;;;16.03;6.80;;;6.30;67.00;;;;;;5094094;28;20651;-68
2021/04/26 03:59:34;;;;;;;9.80;6.23;;;6.30;66.90;;;;;;5088549;28;20220;-70
2021/04/26 04:01:59;;;;;;;9.87;5.30;;;6.20;66.90;;;;;;5090602;28;20373;-69
2021/04/26 04:04:25;;;;;;;14.10;6.20;;;6.20;67.20;;;;;;5109051;28;20557;-69
2021/04/26 04:06:51;;;;;;;14.70;5.90;;;6.20;67.20;;;;;;5110151;28;20254;-69
2021/04/26 04:09:18;;;;;;;15.33;6.50;;;6.10;67.20;;;;;;5109277;28;20182;-70
2021/04/26 04:11:44;;;;;;;11.80;6.43;;;6.20;66.90;;;;;;5108806;28;20436;-70
2021/04/26 04:14:10;;;;;;;11.73;6.23;;;6.20;66.70;;;;;;5107812;28;20432;-70
2021/04/26 04:16:35;;;;;;;13.13;5.83;;;6.20;67.00;;;;;;5108497;28;20428;-69
2021/04/26 04:19:01;;;;;;;10.10;5.80;;;6.20;66.90;;;;;;5109448;28;20197;-70
2021/04/26 04:21:27;;;;;;;14.10;5.77;;;6.10;66.90;;;;;;5109570;28;20251;-70
2021/04/26 04:23:53;;;;;;;20.80;6.47;;;6.10;67.50;;;;;;5110030;28;20778;-69
2021/04/26 04:26:19;;;;;;;9.20;5.93;;;6.00;67.60;;;;;;5110129;28;21088;-68
2021/04/26 04:28:45;;;;;;;10.40;5.57;;;6.00;68.00;;;;;;5108878;28;20451;-70
2021/04/26 04:31:12;;;;;;;10.47;5.77;;;6.00;66.60;;;;;;5095074;28;20199;-70
2021/04/26 04:33:38;;;;;;;14.17;6.90;;;6.10;66.90;;;;;;5110066;28;20424;-70
2021/04/26 04:36:04;;;;;;;9.63;5.47;;;6.10;66.10;;;;;;5113115;28;20812;-69
2021/04/26 04:38:30;;;;;;;10.73;5.30;;;6.20;65.70;;;;;;5111729;28;20193;-70
2021/04/26 04:40:57;;;;;;;9.33;5.33;;;6.20;64.70;;;;;;5112624;28;20448;-71
2021/04/26 04:43:23;;;;;;;10.63;6.27;;;6.30;63.20;;;;;;5113217;28;20509;-69
2021/04/26 04:45:49;;;;;;;9.53;5.30;;;6.30;62.80;;;;;;5111398;28;20424;-69
2021/04/26 04:48:15;;;;;;;9.70;5.53;;;6.30;62.90;;;;;;5101402;28;20467;-69
2021/04/26 04:50:42;;;;;;;13.80;5.27;;;6.30;62.50;;;;;;5096061;28;20494;-69
2021/04/26 04:53:07;;;;;;;12.23;6.00;;;6.30;62.80;;;;;;5092667;28;20425;-69
2021/04/26 04:55:33;;;;;;;14.83;6.27;;;6.40;62.20;;;;;;5106062;28;20424;-70
2021/04/26 04:57:59;;;;;;;17.00;6.17;;;6.10;62.20;;;;;;5092772;28;20725;-69
2021/04/26 05:00:24;;;;;;;9.20;5.20;;;6.10;62.60;;;;;;5090634;28;20211;-70
2021/04/26 05:02:50;;;;;;;9.20;5.30;;;6.00;63.40;;;;;;5102998;28;20198;-70
2021/04/26 05:05:16;;;;;;;9.73;5.47;;;6.00;63.90;;;;;;5115189;28;20190;-69
2021/04/26 05:07:42;;;;;;;13.37;6.00;;;6.20;64.10;;;;;;5106837;28;20207;-70
2021/04/26 05:10:08;;;;;;;10.30;6.10;;;6.30;64.10;;;;;;5112626;28;20912;-69
2021/04/26 05:12:34;;;;;;;13.83;6.07;;;6.30;65.30;;;;;;5117385;28;20424;-69
2021/04/26 05:15:01;;;;;;;13.70;6.17;;;6.30;65.80;;;;;;5114721;28;21168;-71
2021/04/26 05:17:27;;;;;;;14.03;6.63;;;6.30;66.10;;;;;;5115814;28;20554;-69
2021/04/26 05:19:53;;;;;;;9.70;5.80;;;6.20;66.90;;;;;;5098425;28;20520;-70
2021/04/26 05:22:19;;;;;;;14.47;7.37;;;6.10;67.50;;;;;;5106071;28;20440;-70
2021/04/26 05:24:45;;;;;;;10.10;6.10;;;6.10;68.00;;;;;;5119031;28;20424;-69
2021/04/26 05:27:11;;;;;;;9.57;6.30;;;6.20;67.30;;;;;;5117062;28;20210;-71
2021/04/26 05:29:37;;;;;;;13.00;7.87;;;6.40;66.70;;;;;;5115014;28;20488;-70
2021/04/26 05:32:03;;;;;;;11.47;6.47;;;6.30;66.70;;;;;;5115891;28;20213;-70
2021/04/26 05:34:29;;;;;;;9.63;5.90;;;6.40;66.40;;;;;;5113050;28;20436;-71
2021/04/26 05:36:54;;;;;;;11.37;7.37;;;6.10;64.70;;;;;;5114929;28;21021;-70
2021/04/26 05:39:20;;;;;;;13.47;8.43;;;6.10;64.70;;;;;;5103315;28;20685;-70
2021/04/26 05:41:46;;;;;;;12.00;6.17;;;6.20;65.00;;;;;;5099426;28;20295;-69
2021/04/26 05:44:12;;;;;;;14.20;5.87;;;6.30;64.70;;;;;;5098637;28;20215;-70
2021/04/26 05:46:38;;;;;;;14.30;6.40;;;6.20;64.20;;;;;;5110740;28;20456;-70
2021/04/26 05:49:04;;;;;;;11.70;5.57;;;6.10;64.10;;;;;;5096583;28;20187;-69
2021/04/26 05:51:30;;;;;;;11.83;6.03;;;6.30;63.90;;;;;;5099170;28;20462;-68
2021/04/26 05:53:56;;;;;;;12.37;5.60;;;6.30;62.90;;;;;;5098165;28;20420;-71
2021/04/26 05:56:22;;;;;;;13.10;6.23;;;6.30;62.80;;;;;;5103537;28;20222;-70
2021/04/26 05:58:51;;;;;;;10.77;6.50;;;6.50;62.50;;;;;;5090303;28;20460;-71
2021/04/26 06:01:17;;;;;;;15.10;7.00;;;6.50;62.00;;;;;;5090845;28;20324;-71
2021/04/26 06:03:43;;;;;;;13.50;6.90;;;6.50;61.60;;;;;;5091468;28;20421;-70
2021/04/26 06:06:09;;;;;;;10.50;6.23;;;6.30;62.20;;;;;;5100187;28;20448;-69
2021/04/26 06:08:35;;;;;;;18.63;6.00;;;6.20;62.50;;;;;;5095469;28;20797;-71
2021/04/26 06:11:01;;;;;;;11.00;6.57;;;6.40;62.20;;;;;;5090207;28;20287;-67
2021/04/26 06:13:27;;;;;;;15.40;7.50;;;6.30;61.50;;;;;;5094121;28;20481;-67
2021/04/26 06:15:52;;;;;;;10.97;5.37;;;6.30;61.90;;;;;;5121667;27;20183;-65
2021/04/26 06:18:21;;;;;;;11.73;6.20;;;6.40;62.30;;;;;;5099765;28;20225;-69
2021/04/26 06:20:48;;;;;;;13.27;6.60;;;6.60;61.50;;;;;;5089504;28;20862;-67
2021/04/26 06:23:15;;;;;;;13.77;6.70;;;6.80;61.20;;;;;;5106576;28;20783;-68
2021/04/26 06:25:41;;;;;;;15.73;5.90;;;6.90;60.40;;;;;;5110989;28;20419;-67
2021/04/26 06:28:11;;;;;;;12.50;6.80;;;7.00;59.50;;;;;;5107765;28;20854;-69
2021/04/26 06:30:38;;;;;;;10.90;6.07;;;7.00;59.90;;;;;;5107751;28;20599;-68
2021/04/26 06:33:04;;;;;;;13.63;6.43;;;7.20;59.70;;;;;;5110568;28;20424;-67
2021/04/26 06:35:30;;;;;;;14.90;7.23;;;7.10;59.60;;;;;;5111226;28;20412;-68
2021/04/26 06:37:56;;;;;;;11.97;6.30;;;7.10;59.60;;;;;;5111032;28;20537;-69
2021/04/26 06:40:23;;;;;;;14.17;6.50;;;7.20;59.50;;;;;;5109819;28;20455;-68
2021/04/26 06:42:49;;;;;;;13.43;6.90;;;7.30;59.10;;;;;;5097322;28;20428;-68
2021/04/26 06:45:21;;;;;;;14.73;7.00;;;7.40;58.90;;;;;;5110777;28;20454;-69
2021/04/26 06:47:51;;;;;;;16.93;6.73;;;7.40;58.20;;;;;;5110508;28;20474;-67
2021/04/26 06:50:18;;;;;;;9.40;6.30;;;7.50;58.20;;;;;;5097208;28;20428;-68
2021/04/26 06:52:45;;;;;;;15.73;6.73;;;7.60;58.10;;;;;;5107820;28;20787;-66
2021/04/26 06:55:11;;;;;;;12.60;6.50;;;7.50;57.60;;;;;;5110451;28;20835;-68
2021/04/26 06:57:36;;;;;;;16.93;7.10;;;7.60;58.10;;;;;;5109880;28;20423;-67
2021/04/26 07:00:06;;;;;;;12.93;6.70;;;7.80;57.70;;;;;;5109466;28;20752;-69
2021/04/26 07:02:33;;;;;;;11.50;6.27;;;7.80;57.00;;;;;;5110233;28;20187;-68
2021/04/26 07:04:58;;;;;;;11.70;6.43;;;7.80;57.40;;;;;;5110629;28;20464;-69
2021/04/26 07:07:24;;;;;;;12.57;7.00;;;7.90;57.00;;;;;;5110766;28;20463;-69
2021/04/26 07:09:51;;;;;;;15.70;6.87;;;7.80;57.20;;;;;;5109951;28;20187;-68
2021/04/26 07:12:17;;;;;;;12.90;6.53;;;7.80;57.60;;;;;;5110190;28;20970;-68
2021/04/26 07:14:43;;;;;;;13.47;7.17;;;7.60;58.40;;;;;;5110085;28;20417;-69
2021/04/26 07:17:09;;;;;;;16.10;6.93;;;7.60;58.70;;;;;;5110559;28;21000;-68
2021/04/26 07:19:34;;;;;;;15.13;6.93;;;7.80;58.00;;;;;;5109988;28;20319;-69
2021/04/26 07:22:00;;;;;;;11.90;7.10;;;7.90;57.30;;;;;;5110102;28;20294;-69
2021/04/26 07:24:26;;;;;;;13.23;6.83;;;8.00;56.80;;;;;;5110686;28;20265;-69
2021/04/26 07:26:52;;;;;;;16.63;6.60;;;8.10;55.80;;;;;;5110453;28;20512;-69
2021/04/26 07:29:18;;;;;;;11.03;6.60;;;8.20;55.60;;;;;;5108548;28;20647;-68
2021/04/26 07:31:44;;;;;;;11.27;6.37;;;8.40;55.00;;;;;;5109724;28;20436;-69
2021/04/26 07:34:09;;;;;;;14.80;7.23;;;8.30;54.90;;;;;;5110414;28;20187;-69
2021/04/26 07:36:35;;;;;;;10.63;6.03;;;8.30;55.00;;;;;;5109971;28;20473;-69
2021/04/26 07:39:02;;;;;;;11.80;6.63;;;8.40;55.00;;;;;;5109696;28;20555;-67
2021/04/26 07:41:28;;;;;;;13.10;7.10;;;8.20;55.00;;;;;;5104332;28;20444;-68
2021/04/26 07:43:54;;;;;;;11.80;6.17;;;8.10;55.60;;;;;;5089140;28;20421;-68
2021/04/26 07:46:20;;;;;;;13.67;7.03;;;8.30;55.40;;;;;;5090857;28;20206;-69
2021/04/26 07:48:45;;;;;;;9.30;6.40;;;8.50;54.50;;;;;;5089169;28;20282;-69
2021/04/26 07:51:12;;;;;;;9.00;6.57;;;8.50;54.80;;;;;;5088550;28;20449;-68
2021/04/26 07:53:37;;;;;;;10.17;6.80;;;8.60;54.40;;;;;;5089078;28;20179;-69
2021/04/26 07:56:03;;;;;;;10.70;6.40;;;8.60;54.20;;;;;;5098843;28;20921;-67
2021/04/26 07:58:29;;;;;;;11.40;6.93;;;8.60;54.60;;;;;;5099518;28;20236;-69
2021/04/26 08:00:57;;;;;;;11.60;6.33;;;8.70;54.20;;;;;;5096552;28;20456;-67
2021/04/26 08:03:23;;;;;;;15.80;6.87;;;8.70;54.40;;;;;;5110007;28;20648;-68
2021/04/26 08:05:49;;;;;;;12.27;7.00;;;8.70;54.20;;;;;;5092676;28;20425;-68
2021/04/26 08:08:14;;;;;;;11.80;7.07;;;8.80;54.40;;;;;;5094466;28;20494;-68
2021/04/26 08:10:40;;;;;;;11.23;6.90;;;9.00;53.80;;;;;;5109155;28;20279;-68
2021/04/26 08:13:06;;;;;;;11.67;6.77;;;9.20;53.40;;;;;;5094675;28;20187;-67
2021/04/26 08:15:31;;;;;;;10.60;7.23;;;9.40;52.60;;;;;;5101015;28;20174;-69
2021/04/26 08:17:57;;;;;;;21.17;8.10;;;9.30;52.60;;;;;;5103052;28;20229;-69
2021/04/26 08:20:23;;;;;;;10.67;7.23;;;9.40;52.80;;;;;;5095237;28;20255;-68
2021/04/26 08:22:49;;;;;;;25.50;7.17;;;9.60;52.10;;;;;;5107819;28;20585;-69
2021/04/26 08:25:15;;;;;;;10.73;7.00;;;9.60;51.80;;;;;;5112889;28;20716;-68
2021/04/26 08:27:41;;;;;;;16.53;7.40;;;9.60;51.70;;;;;;5114208;28;20206;-68
2021/04/26 08:30:08;;;;;;;13.47;7.53;;;9.20;52.90;;;;;;5113555;28;20440;-68
2021/04/26 08:32:34;;;;;;;12.87;7.10;;;9.40;52.90;;;;;;5114086;28;20674;-69
2021/04/26 08:35:00;;;;;;;14.30;7.50;;;9.40;52.60;;;;;;5114056;28;20911;-70
2021/04/26 08:37:25;;;;;;;11.73;7.17;;;9.60;52.50;;;;;;5101144;28;20452;-69
2021/04/26 08:39:51;;;;;;;12.77;6.80;;;9.70;52.00;;;;;;5112609;28;20252;-68
2021/04/26 08:42:20;;;;;;;11.40;7.43;;;9.80;51.30;;;;;;5093641;28;20452;-68
2021/04/26 08:44:47;;;;;;;13.00;6.80;;;10.00;51.60;;;;;;5107024;27;20270;-68
2021/04/26 08:47:14;;;;;;;12.13;7.50;;;10.10;50.70;;;;;;5093816;28;20543;-68
2021/04/26 08:49:40;;;;;;;11.60;7.60;;;10.00;50.70;;;;;;5113905;28;20792;-68
2021/04/26 08:52:08;;;;;;;11.80;7.37;;;10.00;50.60;;;;;;5114416;28;20493;-68
2021/04/26 08:54:34;;;;;;;13.50;7.63;;;10.30;50.50;;;;;;5115915;28;20452;-68
2021/04/26 08:56:59;;;;;;;17.30;7.93;;;10.30;50.10;;;;;;5118091;28;20423;-69
2021/04/26 08:59:26;;;;;;;13.73;6.80;;;10.20;50.20;;;;;;5122043;28;20420;-69
2021/04/26 09:02:00;;;;;;;12.87;6.67;;;10.30;50.20;;;;;;5122825;28;20455;-68
2021/04/26 09:04:26;;;;;;;13.67;6.90;;;10.40;50.20;;;;;;5115232;28;20419;-68
2021/04/26 09:06:55;;;;;;;11.40;6.20;;;10.60;49.70;;;;;;5100997;28;20467;-69
2021/04/26 09:09:32;;;;;;;18.23;7.03;;;10.80;48.90;;;;;;5112571;28;20190;-68
2021/04/26 09:11:58;;;;;;;10.73;6.50;;;10.90;48.70;;;;;;5118459;28;20436;-69
2021/04/26 09:14:44;;;;;;;11.23;7.40;;;11.00;48.90;;;;;;5105456;28;20420;-68
2021/04/26 09:17:36;;;;;;;17.20;7.43;;;11.20;48.60;;;;;;5107369;28;20417;-69
2021/04/26 09:20:17;;;;;;;17.10;6.90;;;11.30;47.90;;;;;;5095407;28;20421;-69
2021/04/26 09:22:48;;;;;;;8.63;6.40;;;11.30;48.10;;;;;;5111134;28;20958;-68
2021/04/26 09:25:46;;;;;;;10.80;7.03;;;11.20;47.90;;;;;;5094653;28;20413;-69
2021/04/26 09:28:19;;;;;;;13.20;7.10;;;11.30;47.50;;;;;;5046247;28;21228;-69
2021/04/26 09:30:51;;;;;;;10.70;6.83;;;11.50;46.60;;;;;;5029542;28;20678;-68
2021/04/26 09:33:26;;;;;;;11.50;7.17;;;11.60;46.70;;;;;;5049109;28;20978;-69
2021/04/26 09:36:04;;;;;;;16.13;7.37;;;11.60;47.00;;;;;;5050533;28;20427;-68
2021/04/26 09:38:34;;;;;;;14.53;7.63;;;11.50;47.40;;;;;;5050119;28;20427;-69
2021/04/26 09:41:32;;;;;;;12.23;7.40;;;11.60;47.80;;;;;;5047544;28;20446;-68
2021/04/26 09:44:00;;;;;;;10.80;7.40;;;11.40;48.10;;;;;;4965212;28;20435;-69
2021/04/26 09:46:41;;;;;;;13.97;7.80;;;11.50;47.80;;;;;;4971382;28;20911;-68
2021/04/26 09:49:24;;;;;;;15.87;7.57;;;11.80;47.40;;;;;;4957660;28;20427;-69
2021/04/26 09:51:58;;;;;;;12.20;7.37;;;11.70;47.00;;;;;;4970651;28;20509;-68
2021/04/26 09:54:37;;;;;;;13.63;7.60;;;11.70;46.60;;;;;;4954891;28;20431;-69
2021/04/26 09:57:03;;;;;;;14.90;7.00;;;11.50;47.80;;;;;;4970684;28;20443;-68
2021/04/26 09:59:29;;;;;;;11.17;6.80;;;11.40;48.50;;;;;;4970405;28;20453;-69
2021/04/26 10:01:55;;;;;;;11.50;8.33;;;11.70;48.10;;;;;;4970384;28;20451;-68
2021/04/26 10:04:21;;;;;;;10.53;7.40;;;11.90;47.50;;;;;;5021616;28;20335;-69
2021/04/26 10:06:47;;;;;;;13.47;7.17;;;12.10;47.30;;;;;;5035909;28;20434;-69
2021/04/26 10:09:13;;;;;;;12.30;7.70;;;12.30;46.90;;;;;;5049666;28;20426;-69
2021/04/26 10:11:39;;;;;;;12.53;7.20;;;12.20;45.70;;;;;;5051253;28;20497;-69
2021/04/26 10:14:07;;;;;;;11.13;6.77;;;12.00;47.00;;;;;;5027796;28;20284;-69
2021/04/26 10:16:54;;;;;;;12.80;6.90;;;12.30;46.60;;;;;;5045664;28;20470;-68
2021/04/26 10:19:27;;;;;;;12.17;7.57;;;12.50;46.30;;;;;;5042590;28;21122;-69
2021/04/26 10:21:56;;;;;;;12.50;7.90;;;12.60;46.20;;;;;;5099168;28;20463;-68
2021/04/26 10:24:24;;;;;;;19.00;7.53;;;12.50;46.60;;;;;;5112523;28;20424;-69
2021/04/26 10:26:54;;;;;;;11.13;6.70;;;12.90;45.80;;;;;;5115204;28;20421;-70
2021/04/26 10:29:24;;;;;;;8.27;6.47;;;13.40;42.30;;;;;;5114139;28;20455;-68
2021/04/26 10:32:01;;;;;;;17.50;7.90;;;13.80;40.60;;;;;;5112481;28;20475;-69
2021/04/26 10:34:29;;;;;;;11.27;7.23;;;13.80;40.30;;;;;;5113064;28;20420;-68
2021/04/26 10:37:03;;;;;;;12.40;7.10;;;14.00;40.70;;;;;;5114480;28;20412;-68
2021/04/26 10:39:31;;;;;;;12.50;7.50;;;14.30;40.40;;;;;;5111263;28;20419;-69
2021/04/26 10:42:03;;;;;;;15.13;7.33;;;14.40;40.80;;;;;;5111859;28;20496;-68
2021/04/26 10:44:40;;;;;;;11.30;7.57;;;13.70;42.20;;;;;;5112123;28;20423;-70
2021/04/26 10:47:30;;;;;;;14.30;8.23;;;13.60;42.70;;;;;;5111656;28;20455;-67
2021/04/26 10:50:05;;;;;;;17.10;8.50;;;13.80;42.40;;;;;;5090397;28;20455;-69
2021/04/26 10:52:30;;;;;;;13.17;7.60;;;13.80;42.30;;;;;;5107893;28;20840;-68
2021/04/26 10:55:00;;;;;;;14.50;7.33;;;14.00;43.00;;;;;;5111424;28;20436;-68
2021/04/26 10:57:51;;;;;;;15.10;8.20;;;14.50;41.40;;;;;;5111703;28;20191;-68
2021/04/26 11:00:23;;;;;;;15.03;8.50;;;14.90;39.40;;;;;;5110810;28;20428;-69
2021/04/26 11:02:54;;;;;;;12.50;6.93;;;15.00;39.80;;;;;;5099681;28;20948;-68
2021/04/26 11:05:27;;;;;;;12.00;7.73;;;14.40;40.60;;;;;;5110282;28;20794;-69
2021/04/26 11:08:03;;;;;;;12.97;7.50;;;14.90;40.00;;;;;;5102105;28;20485;-68
2021/04/26 11:10:29;;;;;;;12.63;7.43;;;14.90;39.60;;;;;;5095197;28;20443;-67
2021/04/26 11:12:56;;;;;;;10.87;7.57;;;15.40;39.10;;;;;;5107042;28;20416;-68
2021/04/26 11:15:24;;;;;;;11.10;7.37;;;15.50;38.60;;;;;;5093913;28;20508;-69
2021/04/26 11:17:50;;;;;;;15.13;7.70;;;15.70;38.40;;;;;;5103217;28;20496;-69
2021/04/26 11:20:24;;;;;;;10.90;7.30;;;16.00;37.80;;;;;;5104216;28;20429;-70
2021/04/26 11:22:53;;;;;;;11.43;7.67;;;16.30;37.50;;;;;;5103437;28;20534;-69
2021/04/26 11:25:40;;;;;;;12.47;7.23;;;16.50;36.70;;;;;;5110277;28;21033;-69
2021/04/26 11:28:12;;;;;;;11.90;7.33;;;16.60;35.90;;;;;;5110442;28;20473;-69
2021/04/26 11:30:39;;;;;;;11.83;7.40;;;16.70;35.60;;;;;;5108323;28;20452;-67
2021/04/26 11:33:13;;;;;;;9.37;7.10;;;16.70;35.70;;;;;;5094639;28;20425;-69
2021/04/26 11:36:08;;;;;;;14.00;7.30;;;16.00;36.40;;;;;;5090956;28;20420;-70
2021/04/26 11:38:36;;;;;;;11.30;7.90;;;15.70;36.80;;;;;;5096369;28;20416;-68
2021/04/26 11:41:02;;;;;;;12.70;7.23;;;15.50;37.60;;;;;;5093043;28;20528;-69
2021/04/26 11:43:28;;;;;;;11.73;7.30;;;15.20;38.60;;;;;;5089196;28;20456;-68
2021/04/26 11:45:54;;;;;;;16.17;7.30;;;15.20;38.00;;;;;;5089027;28;20421;-70
2021/04/26 11:48:22;;;;;;;13.00;7.10;;;15.40;38.00;;;;;;5087837;28;21054;-69
2021/04/26 11:50:48;;;;;;;11.83;6.53;;;15.60;37.40;;;;;;5088386;28;20494;-69
2021/04/26 11:53:23;;;;;;;12.30;7.90;;;15.90;37.40;;;;;;5088282;28;20437;-70
2021/04/26 11:55:49;;;;;;;11.77;6.23;;;15.60;37.00;;;;;;5091203;28;20842;-69
2021/04/26 11:58:23;;;;;;;12.83;7.17;;;15.60;37.80;;;;;;5089099;28;20434;-69
2021/04/26 12:00:49;;;;;;;9.90;7.00;;;16.00;36.00;;;;;;5088237;28;20213;-69
2021/04/26 12:03:15;;;;;;;9.67;6.80;;;16.20;35.70;;;;;;5089133;28;20424;-68
2021/04/26 12:05:42;;;;;;;11.67;7.57;;;15.60;36.30;;;;;;5099905;28;20187;-70
2021/04/26 12:08:08;;;;;;;10.50;6.70;;;15.90;36.40;;;;;;5089089;28;20283;-69
2021/04/26 12:10:41;;;;;;;9.30;6.00;;;16.20;35.90;;;;;;5088037;28;20883;-70
2021/04/26 12:13:08;;;;;;;10.40;6.07;;;16.50;35.50;;;;;;5092156;28;20670;-68
2021/04/26 12:15:36;;;;;;;12.37;6.30;;;16.60;34.80;;;;;;5109331;28;20413;-70
2021/04/26 12:18:03;;;;;;;11.40;6.90;;;16.80;34.90;;;;;;5108998;28;20531;-70
2021/04/26 12:20:32;;;;;;;7.10;5.80;;;17.20;33.20;;;;;;5107360;28;20480;-70
2021/04/26 12:23:00;;;;;;;11.63;6.27;;;17.50;33.20;;;;;;5113549;28;20416;-70
2021/04/26 12:25:37;;;;;;;12.17;6.63;;;17.00;32.70;;;;;;5109464;28;20427;-69
2021/04/26 12:28:05;;;;;;;9.13;5.70;;;17.10;32.80;;;;;;5107197;28;20556;-70
2021/04/26 12:30:43;;;;;;;13.00;6.63;;;17.20;33.30;;;;;;5096621;28;20442;-69
2021/04/26 12:33:30;;;;;;;12.70;5.50;;;17.80;32.40;;;;;;5102451;28;20421;-68
2021/04/26 12:35:57;;;;;;;12.93;7.20;;;17.90;31.90;;;;;;5103201;28;20421;-68
2021/04/26 12:38:24;;;;;;;11.13;7.50;;;17.10;32.40;;;;;;5109794;28;20496;-70
2021/04/26 12:40:50;;;;;;;9.80;6.23;;;16.10;33.60;;;;;;5111291;28;20882;-68
2021/04/26 12:43:16;;;;;;;12.40;6.33;;;16.60;33.50;;;;;;5114546;28;20461;-69
2021/04/26 12:45:47;;;;;;;8.70;6.00;;;16.70;33.30;;;;;;5115960;28;20446;-72
2021/04/26 12:48:29;;;;;;;10.60;5.87;;;16.80;33.30;;;;;;5114111;28;20518;-68
2021/04/26 12:50:55;;;;;;;15.57;7.80;;;16.90;33.10;;;;;;5110742;28;20457;-69
2021/04/26 12:53:37;;;;;;;11.57;6.70;;;17.00;32.70;;;;;;5106182;28;21068;-69